createdAt,value
2017-10-07T00:03:14.412Z,0
2017-10-07T00:13:14.324Z,0
2017-10-07T00:23:14.366Z,0
2017-10-07T00:33:14.377Z,0
2017-10-07T00:43:14.474Z,0
2017-10-07T00:53:14.449Z,0
2017-10-07T01:03:15.137Z,0
2017-10-07T01:13:14.384Z,0
2017-10-07T01:23:14.407Z,0
2017-10-07T01:33:14.423Z,0
2017-10-07T01:43:14.545Z,0
2017-10-07T01:53:14.449Z,0
2017-10-07T02:03:14.538Z,0
2017-10-07T02:13:14.529Z,0
2017-10-07T02:23:14.475Z,0
2017-10-07T02:33:14.455Z,0
2017-10-07T02:43:14.522Z,0
2017-10-07T02:53:14.486Z,0
2017-10-07T03:03:14.509Z,0
2017-10-07T03:13:14.506Z,0
2017-10-07T03:23:14.516Z,0
2017-10-07T03:33:14.551Z,0
2017-10-07T03:43:14.564Z,0
2017-10-07T03:53:14.539Z,0
2017-10-07T04:03:14.538Z,0
2017-10-07T04:13:14.542Z,0
2017-10-07T04:23:14.593Z,0
2017-10-07T04:33:14.695Z,0
2017-10-07T04:43:14.573Z,0
2017-10-07T04:53:14.576Z,0
2017-10-07T05:03:14.686Z,0
2017-10-07T05:13:14.622Z,4
2017-10-07T05:23:14.673Z,12
2017-10-07T05:33:14.631Z,44
2017-10-07T05:43:14.609Z,140
2017-10-07T05:53:14.667Z,264
2017-10-07T06:03:14.627Z,504
2017-10-07T06:13:14.700Z,976
2017-10-07T06:23:14.630Z,824
2017-10-07T06:33:14.589Z,1456
2017-10-07T06:43:14.580Z,3432
2017-10-07T06:53:14.611Z,2728
2017-10-07T07:03:14.631Z,2176
2017-10-07T07:13:14.644Z,2504
2017-10-07T07:23:14.593Z,2868
2017-10-07T07:33:14.637Z,2624
2017-10-07T07:43:14.608Z,4664
2017-10-07T07:53:14.652Z,5872
2017-10-07T08:03:14.586Z,6812
2017-10-07T08:13:14.603Z,9332
2017-10-07T08:23:14.693Z,8944
2017-10-07T08:33:14.669Z,5868
2017-10-07T08:43:14.567Z,6300
2017-10-07T08:53:14.583Z,6988
2017-10-07T09:03:14.628Z,5728
2017-10-07T09:13:14.633Z,5636
2017-10-07T09:23:14.646Z,6328
2017-10-07T09:33:14.704Z,5880
2017-10-07T09:43:14.753Z,5092
2017-10-07T09:53:14.676Z,5924
2017-10-07T10:03:14.725Z,2948
2017-10-07T10:13:14.705Z,3764
2017-10-07T10:23:14.622Z,4300
2017-10-07T10:33:14.611Z,3544
2017-10-07T10:43:14.573Z,3864
2017-10-07T10:53:14.667Z,4744
2017-10-07T11:03:14.719Z,3972
2017-10-07T11:13:14.654Z,2256
2017-10-07T11:23:14.709Z,2760
2017-10-07T11:33:14.583Z,2680
2017-10-07T11:43:14.577Z,4024
2017-10-07T11:53:14.935Z,3344
2017-10-07T12:03:14.793Z,2572
2017-10-07T12:13:15.206Z,2808
2017-10-07T12:23:15.251Z,3228
2017-10-07T12:33:14.627Z,2784
2017-10-07T12:43:14.564Z,2788
2017-10-07T12:53:14.662Z,3000
2017-10-07T13:03:14.626Z,3716
2017-10-07T13:13:14.627Z,2680
2017-10-07T13:23:14.884Z,2952
2017-10-07T13:33:14.637Z,3508
2017-10-07T13:43:14.676Z,4680
2017-10-07T13:53:14.674Z,2936
2017-10-07T14:03:14.667Z,3916
2017-10-07T14:13:14.754Z,2708
2017-10-07T14:23:14.688Z,2056
2017-10-07T14:33:14.685Z,1756
2017-10-07T14:43:14.727Z,1224
2017-10-07T14:53:14.778Z,1012
2017-10-07T15:03:14.750Z,556
2017-10-07T15:13:14.715Z,1008
2017-10-07T15:23:14.794Z,612
2017-10-07T15:33:14.797Z,488
2017-10-07T15:43:14.775Z,464
2017-10-07T15:53:14.795Z,460
2017-10-07T16:03:15.010Z,380
2017-10-07T16:13:14.787Z,208
2017-10-07T16:23:14.804Z,104
2017-10-07T16:33:15.506Z,104
2017-10-07T16:43:14.806Z,40
2017-10-07T16:53:14.821Z,28
2017-10-07T17:03:14.881Z,4
2017-10-07T17:13:14.808Z,0
2017-10-07T17:23:14.864Z,0
2017-10-07T17:33:14.901Z,0
2017-10-07T17:43:14.972Z,0
2017-10-07T17:53:14.882Z,4
2017-10-07T18:03:14.966Z,0
2017-10-07T18:13:14.943Z,0
2017-10-07T18:23:14.931Z,0
2017-10-07T18:33:14.959Z,0
2017-10-07T18:43:14.973Z,0
2017-10-07T18:53:14.981Z,4
2017-10-07T19:03:15.013Z,0
2017-10-07T19:13:15.904Z,4
2017-10-07T19:23:16.462Z,0
2017-10-07T19:33:16.435Z,0
2017-10-07T19:43:15.499Z,0
2017-10-07T19:53:15.330Z,0
2017-10-07T20:03:15.331Z,4
2017-10-07T20:13:15.064Z,0
2017-10-07T20:23:15.259Z,0
2017-10-07T20:33:15.480Z,0
2017-10-07T20:43:15.086Z,0
2017-10-07T20:53:15.113Z,0
2017-10-07T21:03:15.506Z,0
2017-10-07T21:13:15.984Z,0
2017-10-07T21:23:15.306Z,0
2017-10-07T21:33:16.716Z,0
2017-10-07T21:43:15.287Z,0
2017-10-07T21:53:43.447Z,0
2017-10-07T22:03:26.004Z,0
2017-10-07T22:13:15.299Z,0
2017-10-07T22:23:15.166Z,0
2017-10-07T22:33:15.183Z,0
2017-10-07T22:43:15.169Z,0
2017-10-07T22:53:15.180Z,4
2017-10-07T23:03:15.816Z,0
2017-10-07T23:13:15.175Z,0
2017-10-07T23:23:15.253Z,0
2017-10-07T23:33:15.323Z,0
2017-10-07T23:43:15.230Z,0
2017-10-07T23:53:15.883Z,0
